sensor_id;sensor_type;location;lat;lon;timestamp;P1;durP1;ratioP1;P2;durP2;ratioP2
37203;SDS011;23098;48.054;10.636;2023-04-03T00:00:29;4.38;;;3.00;;
37203;SDS011;23098;48.054;10.636;2023-04-03T00:02:55;4.45;;;2.97;;
37203;SDS011;23098;48.054;10.636;2023-04-03T00:05:20;4.32;;;3.08;;
37203;SDS011;23098;48.054;10.636;2023-04-03T00:07:46;5.90;;;3.35;;
37203;SDS011;23098;48.054;10.636;2023-04-03T00:10:12;9.40;;;4.55;;
37203;SDS011;23098;48.054;10.636;2023-04-03T00:12:38;6.68;;;4.53;;
37203;SDS011;23098;48.054;10.636;2023-04-03T00:15:04;8.00;;;4.78;;
37203;SDS011;23098;48.054;10.636;2023-04-03T00:17:30;7.80;;;4.95;;
37203;SDS011;23098;48.054;10.636;2023-04-03T00:19:57;7.68;;;5.20;;
37203;SDS011;23098;48.054;10.636;2023-04-03T00:22:23;6.40;;;4.55;;
37203;SDS011;23098;48.054;10.636;2023-04-03T00:24:48;7.65;;;4.72;;
37203;SDS011;23098;48.054;10.636;2023-04-03T00:27:14;6.28;;;4.53;;
37203;SDS011;23098;48.054;10.636;2023-04-03T00:29:40;4.88;;;2.75;;
37203;SDS011;23098;48.054;10.636;2023-04-03T00:32:06;8.65;;;4.53;;
37203;SDS011;23098;48.054;10.636;2023-04-03T00:34:31;9.93;;;5.80;;
37203;SDS011;23098;48.054;10.636;2023-04-03T00:36:57;8.80;;;5.45;;
37203;SDS011;23098;48.054;10.636;2023-04-03T00:39:22;10.23;;;6.40;;
37203;SDS011;23098;48.054;10.636;2023-04-03T00:41:48;9.10;;;5.70;;
37203;SDS011;23098;48.054;10.636;2023-04-03T00:44:21;6.57;;;4.88;;
37203;SDS011;23098;48.054;10.636;2023-04-03T00:46:47;9.45;;;6.65;;
37203;SDS011;23098;48.054;10.636;2023-04-03T00:49:13;13.45;;;5.53;;
37203;SDS011;23098;48.054;10.636;2023-04-03T00:51:38;5.82;;;3.97;;
37203;SDS011;23098;48.054;10.636;2023-04-03T00:54:05;11.68;;;7.28;;
37203;SDS011;23098;48.054;10.636;2023-04-03T00:56:32;9.50;;;6.30;;
37203;SDS011;23098;48.054;10.636;2023-04-03T01:01:55;13.07;;;7.57;;
37203;SDS011;23098;48.054;10.636;2023-04-03T01:04:28;11.88;;;7.82;;
37203;SDS011;23098;48.054;10.636;2023-04-03T01:06:58;11.68;;;6.43;;
37203;SDS011;23098;48.054;10.636;2023-04-03T01:09:28;15.35;;;6.53;;
37203;SDS011;23098;48.054;10.636;2023-04-03T01:11:54;11.95;;;7.63;;
37203;SDS011;23098;48.054;10.636;2023-04-03T01:14:32;15.85;;;8.05;;
37203;SDS011;23098;48.054;10.636;2023-04-03T01:16:58;14.68;;;9.05;;
37203;SDS011;23098;48.054;10.636;2023-04-03T01:19:24;13.77;;;9.32;;
37203;SDS011;23098;48.054;10.636;2023-04-03T01:21:56;15.32;;;8.35;;
37203;SDS011;23098;48.054;10.636;2023-04-03T01:24:42;12.75;;;7.13;;
37203;SDS011;23098;48.054;10.636;2023-04-03T01:27:07;11.75;;;7.95;;
37203;SDS011;23098;48.054;10.636;2023-04-03T01:29:35;9.30;;;6.38;;
37203;SDS011;23098;48.054;10.636;2023-04-03T01:32:02;11.55;;;7.03;;
37203;SDS011;23098;48.054;10.636;2023-04-03T01:34:28;8.25;;;4.72;;
37203;SDS011;23098;48.054;10.636;2023-04-03T01:36:55;11.98;;;6.97;;
37203;SDS011;23098;48.054;10.636;2023-04-03T01:39:21;11.65;;;7.15;;
37203;SDS011;23098;48.054;10.636;2023-04-03T01:41:46;10.35;;;5.25;;
37203;SDS011;23098;48.054;10.636;2023-04-03T01:44:12;13.30;;;8.30;;
37203;SDS011;23098;48.054;10.636;2023-04-03T01:46:38;10.20;;;6.90;;
37203;SDS011;23098;48.054;10.636;2023-04-03T01:49:04;10.07;;;6.43;;
37203;SDS011;23098;48.054;10.636;2023-04-03T01:51:30;14.38;;;8.05;;
37203;SDS011;23098;48.054;10.636;2023-04-03T01:53:55;11.27;;;6.72;;
37203;SDS011;23098;48.054;10.636;2023-04-03T01:56:21;9.15;;;4.30;;
37203;SDS011;23098;48.054;10.636;2023-04-03T01:58:47;10.73;;;6.68;;
37203;SDS011;23098;48.054;10.636;2023-04-03T02:01:13;10.23;;;5.90;;
37203;SDS011;23098;48.054;10.636;2023-04-03T02:03:38;6.70;;;4.10;;
37203;SDS011;23098;48.054;10.636;2023-04-03T02:06:04;3.22;;;2.20;;
37203;SDS011;23098;48.054;10.636;2023-04-03T02:08:30;9.55;;;5.47;;
37203;SDS011;23098;48.054;10.636;2023-04-03T02:10:55;8.40;;;5.18;;
37203;SDS011;23098;48.054;10.636;2023-04-03T02:13:21;10.80;;;5.72;;
37203;SDS011;23098;48.054;10.636;2023-04-03T02:15:47;11.60;;;6.25;;
37203;SDS011;23098;48.054;10.636;2023-04-03T02:18:12;8.68;;;4.97;;
37203;SDS011;23098;48.054;10.636;2023-04-03T02:20:38;9.63;;;5.20;;
37203;SDS011;23098;48.054;10.636;2023-04-03T02:23:04;7.93;;;4.20;;
37203;SDS011;23098;48.054;10.636;2023-04-03T02:25:30;7.15;;;3.97;;
37203;SDS011;23098;48.054;10.636;2023-04-03T02:27:57;4.53;;;2.95;;
37203;SDS011;23098;48.054;10.636;2023-04-03T02:30:23;4.88;;;2.47;;
37203;SDS011;23098;48.054;10.636;2023-04-03T02:32:48;6.32;;;4.35;;
37203;SDS011;23098;48.054;10.636;2023-04-03T02:35:14;6.22;;;4.18;;
37203;SDS011;23098;48.054;10.636;2023-04-03T02:37:40;4.82;;;3.83;;
37203;SDS011;23098;48.054;10.636;2023-04-03T02:40:06;5.13;;;3.30;;
37203;SDS011;23098;48.054;10.636;2023-04-03T02:42:32;6.13;;;4.13;;
37203;SDS011;23098;48.054;10.636;2023-04-03T02:44:58;6.20;;;3.28;;
37203;SDS011;23098;48.054;10.636;2023-04-03T02:47:25;5.93;;;4.10;;
37203;SDS011;23098;48.054;10.636;2023-04-03T02:49:51;7.70;;;4.53;;
37203;SDS011;23098;48.054;10.636;2023-04-03T02:52:17;7.72;;;5.10;;
37203;SDS011;23098;48.054;10.636;2023-04-03T02:54:43;7.25;;;4.47;;
37203;SDS011;23098;48.054;10.636;2023-04-03T02:57:08;10.40;;;5.53;;
37203;SDS011;23098;48.054;10.636;2023-04-03T02:59:37;8.85;;;4.88;;
37203;SDS011;23098;48.054;10.636;2023-04-03T03:02:09;10.60;;;4.80;;
37203;SDS011;23098;48.054;10.636;2023-04-03T03:04:35;7.10;;;4.15;;
37203;SDS011;23098;48.054;10.636;2023-04-03T03:07:01;6.35;;;3.30;;
37203;SDS011;23098;48.054;10.636;2023-04-03T03:09:28;2.38;;;2.10;;
37203;SDS011;23098;48.054;10.636;2023-04-03T03:11:54;8.45;;;5.35;;
37203;SDS011;23098;48.054;10.636;2023-04-03T03:14:20;5.40;;;4.00;;
37203;SDS011;23098;48.054;10.636;2023-04-03T03:16:46;6.28;;;4.70;;
37203;SDS011;23098;48.054;10.636;2023-04-03T03:19:11;9.48;;;4.07;;
37203;SDS011;23098;48.054;10.636;2023-04-03T03:21:37;9.55;;;5.70;;
37203;SDS011;23098;48.054;10.636;2023-04-03T03:24:03;4.78;;;3.22;;
37203;SDS011;23098;48.054;10.636;2023-04-03T03:26:29;6.78;;;4.97;;
37203;SDS011;23098;48.054;10.636;2023-04-03T03:28:56;7.10;;;5.15;;
37203;SDS011;23098;48.054;10.636;2023-04-03T03:31:22;6.63;;;4.78;;
37203;SDS011;23098;48.054;10.636;2023-04-03T03:33:47;4.53;;;3.50;;
37203;SDS011;23098;48.054;10.636;2023-04-03T03:36:13;3.75;;;2.60;;
37203;SDS011;23098;48.054;10.636;2023-04-03T03:38:38;7.18;;;4.43;;
37203;SDS011;23098;48.054;10.636;2023-04-03T03:41:04;7.32;;;3.95;;
37203;SDS011;23098;48.054;10.636;2023-04-03T03:43:29;4.43;;;3.22;;
37203;SDS011;23098;48.054;10.636;2023-04-03T03:45:55;8.02;;;4.68;;
37203;SDS011;23098;48.054;10.636;2023-04-03T03:48:21;6.32;;;3.85;;
37203;SDS011;23098;48.054;10.636;2023-04-03T03:50:47;6.43;;;4.57;;
37203;SDS011;23098;48.054;10.636;2023-04-03T03:53:13;7.22;;;4.50;;
37203;SDS011;23098;48.054;10.636;2023-04-03T03:55:39;5.10;;;3.60;;
37203;SDS011;23098;48.054;10.636;2023-04-03T03:58:05;7.22;;;3.88;;
37203;SDS011;23098;48.054;10.636;2023-04-03T04:00:30;4.55;;;2.28;;
37203;SDS011;23098;48.054;10.636;2023-04-03T04:02:56;5.50;;;3.65;;
37203;SDS011;23098;48.054;10.636;2023-04-03T04:05:22;7.50;;;4.45;;
37203;SDS011;23098;48.054;10.636;2023-04-03T04:07:48;5.05;;;3.35;;
37203;SDS011;23098;48.054;10.636;2023-04-03T04:10:13;7.55;;;4.18;;
37203;SDS011;23098;48.054;10.636;2023-04-03T04:12:39;6.78;;;4.60;;
37203;SDS011;23098;48.054;10.636;2023-04-03T04:15:05;5.00;;;3.72;;
37203;SDS011;23098;48.054;10.636;2023-04-03T04:17:31;4.10;;;2.95;;
37203;SDS011;23098;48.054;10.636;2023-04-03T04:19:56;5.82;;;3.85;;
37203;SDS011;23098;48.054;10.636;2023-04-03T04:22:22;3.88;;;2.85;;
37203;SDS011;23098;48.054;10.636;2023-04-03T04:24:47;7.63;;;3.15;;
37203;SDS011;23098;48.054;10.636;2023-04-03T04:27:13;5.45;;;3.25;;
37203;SDS011;23098;48.054;10.636;2023-04-03T04:29:40;8.80;;;3.50;;
37203;SDS011;23098;48.054;10.636;2023-04-03T04:32:06;6.47;;;4.43;;
37203;SDS011;23098;48.054;10.636;2023-04-03T04:34:31;4.82;;;3.38;;
37203;SDS011;23098;48.054;10.636;2023-04-03T04:36:56;7.65;;;4.57;;
37203;SDS011;23098;48.054;10.636;2023-04-03T04:39:22;3.47;;;3.03;;
37203;SDS011;23098;48.054;10.636;2023-04-03T04:41:48;5.70;;;2.83;;
37203;SDS011;23098;48.054;10.636;2023-04-03T04:44:13;3.60;;;3.03;;
37203;SDS011;23098;48.054;10.636;2023-04-03T04:46:39;3.88;;;2.60;;
37203;SDS011;23098;48.054;10.636;2023-04-03T04:49:05;4.22;;;2.75;;
37203;SDS011;23098;48.054;10.636;2023-04-03T04:51:30;5.25;;;3.40;;
37203;SDS011;23098;48.054;10.636;2023-04-03T04:53:56;5.45;;;3.50;;
37203;SDS011;23098;48.054;10.636;2023-04-03T04:56:22;3.63;;;2.33;;
37203;SDS011;23098;48.054;10.636;2023-04-03T04:58:48;6.43;;;3.80;;
37203;SDS011;23098;48.054;10.636;2023-04-03T05:01:14;7.38;;;3.05;;
37203;SDS011;23098;48.054;10.636;2023-04-03T05:03:41;7.55;;;3.90;;
37203;SDS011;23098;48.054;10.636;2023-04-03T05:06:10;4.18;;;3.15;;
37203;SDS011;23098;48.054;10.636;2023-04-03T05:08:38;2.72;;;1.90;;
37203;SDS011;23098;48.054;10.636;2023-04-03T05:11:04;2.85;;;2.20;;
37203;SDS011;23098;48.054;10.636;2023-04-03T05:13:29;6.70;;;3.55;;
37203;SDS011;23098;48.054;10.636;2023-04-03T05:15:55;6.00;;;3.78;;
37203;SDS011;23098;48.054;10.636;2023-04-03T05:18:20;6.55;;;3.85;;
37203;SDS011;23098;48.054;10.636;2023-04-03T05:20:47;4.35;;;2.35;;
37203;SDS011;23098;48.054;10.636;2023-04-03T05:23:14;6.22;;;3.67;;
37203;SDS011;23098;48.054;10.636;2023-04-03T05:25:39;3.25;;;2.50;;
37203;SDS011;23098;48.054;10.636;2023-04-03T05:28:05;4.72;;;2.85;;
37203;SDS011;23098;48.054;10.636;2023-04-03T05:30:31;2.67;;;1.90;;
37203;SDS011;23098;48.054;10.636;2023-04-03T05:32:57;6.78;;;4.32;;
37203;SDS011;23098;48.054;10.636;2023-04-03T05:35:23;3.10;;;2.25;;
37203;SDS011;23098;48.054;10.636;2023-04-03T05:37:49;4.40;;;3.22;;
37203;SDS011;23098;48.054;10.636;2023-04-03T05:40:15;8.15;;;4.07;;
37203;SDS011;23098;48.054;10.636;2023-04-03T05:42:41;4.15;;;2.63;;
37203;SDS011;23098;48.054;10.636;2023-04-03T05:45:07;3.20;;;1.70;;
37203;SDS011;23098;48.054;10.636;2023-04-03T05:47:36;3.35;;;2.53;;
37203;SDS011;23098;48.054;10.636;2023-04-03T05:50:07;6.85;;;4.50;;
37203;SDS011;23098;48.054;10.636;2023-04-03T05:52:38;4.13;;;2.55;;
37203;SDS011;23098;48.054;10.636;2023-04-03T05:55:08;3.13;;;2.13;;
37203;SDS011;23098;48.054;10.636;2023-04-03T05:57:33;5.43;;;3.95;;
37203;SDS011;23098;48.054;10.636;2023-04-03T06:00:11;1.90;;;1.70;;
37203;SDS011;23098;48.054;10.636;2023-04-03T06:02:59;6.80;;;4.25;;
37203;SDS011;23098;48.054;10.636;2023-04-03T06:05:26;6.90;;;3.88;;
37203;SDS011;23098;48.054;10.636;2023-04-03T06:07:52;4.32;;;2.80;;
37203;SDS011;23098;48.054;10.636;2023-04-03T06:10:18;4.18;;;2.60;;
37203;SDS011;23098;48.054;10.636;2023-04-03T06:12:45;7.63;;;3.55;;
37203;SDS011;23098;48.054;10.636;2023-04-03T06:15:10;9.35;;;4.28;;
37203;SDS011;23098;48.054;10.636;2023-04-03T06:17:37;4.65;;;2.83;;
37203;SDS011;23098;48.054;10.636;2023-04-03T06:20:03;5.20;;;2.63;;
37203;SDS011;23098;48.054;10.636;2023-04-03T06:22:29;3.30;;;2.47;;
37203;SDS011;23098;48.054;10.636;2023-04-03T06:24:56;6.72;;;3.85;;
37203;SDS011;23098;48.054;10.636;2023-04-03T06:27:22;4.25;;;3.08;;
37203;SDS011;23098;48.054;10.636;2023-04-03T06:29:47;4.07;;;2.63;;
37203;SDS011;23098;48.054;10.636;2023-04-03T06:32:16;6.03;;;3.65;;
37203;SDS011;23098;48.054;10.636;2023-04-03T06:34:42;6.25;;;2.40;;
37203;SDS011;23098;48.054;10.636;2023-04-03T06:37:26;4.85;;;3.20;;
37203;SDS011;23098;48.054;10.636;2023-04-03T06:39:53;6.18;;;4.18;;
37203;SDS011;23098;48.054;10.636;2023-04-03T06:42:20;2.70;;;1.35;;
37203;SDS011;23098;48.054;10.636;2023-04-03T06:44:48;4.22;;;2.35;;
37203;SDS011;23098;48.054;10.636;2023-04-03T06:47:14;5.28;;;3.42;;
37203;SDS011;23098;48.054;10.636;2023-04-03T06:49:40;4.82;;;3.55;;
37203;SDS011;23098;48.054;10.636;2023-04-03T06:52:07;3.83;;;2.72;;
37203;SDS011;23098;48.054;10.636;2023-04-03T06:54:32;4.72;;;3.40;;
37203;SDS011;23098;48.054;10.636;2023-04-03T06:56:59;5.20;;;2.97;;
37203;SDS011;23098;48.054;10.636;2023-04-03T06:59:25;5.05;;;3.38;;
37203;SDS011;23098;48.054;10.636;2023-04-03T07:01:51;6.93;;;4.03;;
37203;SDS011;23098;48.054;10.636;2023-04-03T07:04:17;5.47;;;3.08;;
37203;SDS011;23098;48.054;10.636;2023-04-03T07:06:45;4.90;;;3.03;;
37203;SDS011;23098;48.054;10.636;2023-04-03T07:09:12;5.43;;;3.10;;
37203;SDS011;23098;48.054;10.636;2023-04-03T07:11:38;5.80;;;3.95;;
37203;SDS011;23098;48.054;10.636;2023-04-03T07:14:05;5.13;;;3.58;;
37203;SDS011;23098;48.054;10.636;2023-04-03T07:16:32;5.47;;;3.20;;
37203;SDS011;23098;48.054;10.636;2023-04-03T07:18:59;5.70;;;3.83;;
37203;SDS011;23098;48.054;10.636;2023-04-03T07:21:25;7.63;;;4.28;;
37203;SDS011;23098;48.054;10.636;2023-04-03T07:23:50;7.90;;;4.05;;
37203;SDS011;23098;48.054;10.636;2023-04-03T07:26:16;6.72;;;4.20;;
37203;SDS011;23098;48.054;10.636;2023-04-03T07:28:41;5.30;;;3.83;;
37203;SDS011;23098;48.054;10.636;2023-04-03T07:31:10;5.80;;;3.50;;
37203;SDS011;23098;48.054;10.636;2023-04-03T07:33:38;4.75;;;3.25;;
37203;SDS011;23098;48.054;10.636;2023-04-03T07:36:04;5.78;;;4.05;;
37203;SDS011;23098;48.054;10.636;2023-04-03T07:38:32;6.20;;;4.32;;
37203;SDS011;23098;48.054;10.636;2023-04-03T07:41:00;6.40;;;4.30;;
37203;SDS011;23098;48.054;10.636;2023-04-03T07:43:26;3.53;;;2.15;;
37203;SDS011;23098;48.054;10.636;2023-04-03T07:45:53;5.28;;;3.92;;
37203;SDS011;23098;48.054;10.636;2023-04-03T07:48:23;5.25;;;2.88;;
37203;SDS011;23098;48.054;10.636;2023-04-03T07:50:50;5.78;;;3.80;;
37203;SDS011;23098;48.054;10.636;2023-04-03T07:53:16;3.30;;;2.67;;
37203;SDS011;23098;48.054;10.636;2023-04-03T07:55:42;1.98;;;1.60;;
37203;SDS011;23098;48.054;10.636;2023-04-03T07:58:13;5.75;;;3.92;;
37203;SDS011;23098;48.054;10.636;2023-04-03T08:00:40;2.88;;;2.45;;
37203;SDS011;23098;48.054;10.636;2023-04-03T08:03:06;5.25;;;3.88;;
37203;SDS011;23098;48.054;10.636;2023-04-03T08:05:37;7.07;;;4.00;;
37203;SDS011;23098;48.054;10.636;2023-04-03T08:08:05;3.70;;;2.75;;
37203;SDS011;23098;48.054;10.636;2023-04-03T08:10:31;4.63;;;3.25;;
37203;SDS011;23098;48.054;10.636;2023-04-03T08:12:58;4.13;;;2.90;;
37203;SDS011;23098;48.054;10.636;2023-04-03T08:15:25;4.75;;;3.28;;
37203;SDS011;23098;48.054;10.636;2023-04-03T08:17:51;6.75;;;3.22;;
37203;SDS011;23098;48.054;10.636;2023-04-03T08:20:17;5.18;;;3.58;;
37203;SDS011;23098;48.054;10.636;2023-04-03T08:22:43;4.30;;;3.25;;
37203;SDS011;23098;48.054;10.636;2023-04-03T08:25:08;4.72;;;2.45;;
37203;SDS011;23098;48.054;10.636;2023-04-03T08:27:34;6.20;;;3.65;;
37203;SDS011;23098;48.054;10.636;2023-04-03T08:30:00;5.57;;;1.95;;
37203;SDS011;23098;48.054;10.636;2023-04-03T08:32:26;5.60;;;3.50;;
37203;SDS011;23098;48.054;10.636;2023-04-03T08:34:51;7.10;;;4.10;;
37203;SDS011;23098;48.054;10.636;2023-04-03T08:37:17;5.38;;;3.55;;
37203;SDS011;23098;48.054;10.636;2023-04-03T08:39:44;6.78;;;4.30;;
37203;SDS011;23098;48.054;10.636;2023-04-03T08:47:28;4.28;;;3.28;;
37203;SDS011;23098;48.054;10.636;2023-04-03T08:50:13;7.32;;;3.28;;
37203;SDS011;23098;48.054;10.636;2023-04-03T08:52:44;4.90;;;2.88;;
37203;SDS011;23098;48.054;10.636;2023-04-03T08:57:45;7.15;;;2.10;;
37203;SDS011;23098;48.054;10.636;2023-04-03T09:02:44;4.65;;;3.22;;
37203;SDS011;23098;48.054;10.636;2023-04-03T09:06:03;3.63;;;2.22;;
37203;SDS011;23098;48.054;10.636;2023-04-03T09:08:07;4.85;;;2.63;;
37203;SDS011;23098;48.054;10.636;2023-04-03T09:10:46;2.92;;;2.05;;
37203;SDS011;23098;48.054;10.636;2023-04-03T09:13:13;2.47;;;1.73;;
37203;SDS011;23098;48.054;10.636;2023-04-03T09:15:56;5.60;;;3.47;;
37203;SDS011;23098;48.054;10.636;2023-04-03T09:18:32;5.97;;;3.05;;
37203;SDS011;23098;48.054;10.636;2023-04-03T09:21:08;4.25;;;2.90;;
37203;SDS011;23098;48.054;10.636;2023-04-03T09:23:55;3.60;;;1.70;;
37203;SDS011;23098;48.054;10.636;2023-04-03T09:26:26;5.82;;;3.92;;
37203;SDS011;23098;48.054;10.636;2023-04-03T09:28:59;4.47;;;3.38;;
37203;SDS011;23098;48.054;10.636;2023-04-03T09:31:31;3.28;;;2.40;;
37203;SDS011;23098;48.054;10.636;2023-04-03T09:34:03;5.38;;;3.13;;
37203;SDS011;23098;48.054;10.636;2023-04-03T09:39:15;4.35;;;2.92;;
37203;SDS011;23098;48.054;10.636;2023-04-03T09:41:59;3.90;;;2.75;;
37203;SDS011;23098;48.054;10.636;2023-04-03T09:44:41;6.88;;;3.60;;
37203;SDS011;23098;48.054;10.636;2023-04-03T09:47:25;3.97;;;3.25;;
37203;SDS011;23098;48.054;10.636;2023-04-03T09:50:09;5.10;;;3.53;;
37203;SDS011;23098;48.054;10.636;2023-04-03T09:52:43;3.90;;;2.80;;
37203;SDS011;23098;48.054;10.636;2023-04-03T09:55:14;2.92;;;2.15;;
37203;SDS011;23098;48.054;10.636;2023-04-03T09:57:46;4.70;;;3.53;;
37203;SDS011;23098;48.054;10.636;2023-04-03T10:02:56;5.20;;;3.40;;
37203;SDS011;23098;48.054;10.636;2023-04-03T10:10:38;3.83;;;1.90;;
37203;SDS011;23098;48.054;10.636;2023-04-03T10:13:22;3.90;;;2.30;;
37203;SDS011;23098;48.054;10.636;2023-04-03T10:15:50;2.47;;;2.05;;
37203;SDS011;23098;48.054;10.636;2023-04-03T10:18:26;4.70;;;3.05;;
37203;SDS011;23098;48.054;10.636;2023-04-03T10:20:54;3.08;;;2.38;;
37203;SDS011;23098;48.054;10.636;2023-04-03T10:23:28;6.15;;;3.60;;
37203;SDS011;23098;48.054;10.636;2023-04-03T10:29:02;4.50;;;2.70;;
37203;SDS011;23098;48.054;10.636;2023-04-03T10:34:06;4.28;;;2.42;;
37203;SDS011;23098;48.054;10.636;2023-04-03T10:39:27;2.78;;;1.73;;
37203;SDS011;23098;48.054;10.636;2023-04-03T10:42:16;3.85;;;2.88;;
37203;SDS011;23098;48.054;10.636;2023-04-03T10:47:54;2.22;;;1.35;;
37203;SDS011;23098;48.054;10.636;2023-04-03T10:53:14;4.25;;;3.13;;
37203;SDS011;23098;48.054;10.636;2023-04-03T10:58:48;3.72;;;2.72;;
37203;SDS011;23098;48.054;10.636;2023-04-03T11:01:24;3.60;;;2.47;;
37203;SDS011;23098;48.054;10.636;2023-04-03T11:04:04;5.88;;;2.38;;
37203;SDS011;23098;48.054;10.636;2023-04-03T11:09:26;3.80;;;2.75;;
37203;SDS011;23098;48.054;10.636;2023-04-03T11:12:03;1.60;;;1.30;;
37203;SDS011;23098;48.054;10.636;2023-04-03T11:14:35;1.88;;;1.63;;
37203;SDS011;23098;48.054;10.636;2023-04-03T11:22:34;2.22;;;1.65;;
37203;SDS011;23098;48.054;10.636;2023-04-03T11:27:41;3.95;;;2.55;;
37203;SDS011;23098;48.054;10.636;2023-04-03T11:33:20;2.80;;;2.33;;
37203;SDS011;23098;48.054;10.636;2023-04-03T11:36:00;1.90;;;1.40;;
37203;SDS011;23098;48.054;10.636;2023-04-03T11:38:43;6.75;;;2.88;;
37203;SDS011;23098;48.054;10.636;2023-04-03T11:41:11;6.40;;;2.95;;
37203;SDS011;23098;48.054;10.636;2023-04-03T11:43:42;2.35;;;1.95;;
37203;SDS011;23098;48.054;10.636;2023-04-03T11:46:22;3.42;;;2.45;;
37203;SDS011;23098;48.054;10.636;2023-04-03T11:49:19;3.88;;;3.08;;
37203;SDS011;23098;48.054;10.636;2023-04-03T11:52:12;3.63;;;2.78;;
37203;SDS011;23098;48.054;10.636;2023-04-03T11:54:58;4.90;;;3.42;;
37203;SDS011;23098;48.054;10.636;2023-04-03T11:57:43;4.90;;;3.60;;
37203;SDS011;23098;48.054;10.636;2023-04-03T12:05:51;4.35;;;2.88;;
37203;SDS011;23098;48.054;10.636;2023-04-03T12:18:56;2.47;;;2.17;;
37203;SDS011;23098;48.054;10.636;2023-04-03T12:26:48;3.42;;;2.50;;
37203;SDS011;23098;48.054;10.636;2023-04-03T12:29:32;5.85;;;3.55;;
37203;SDS011;23098;48.054;10.636;2023-04-03T12:35:31;7.72;;;2.08;;
37203;SDS011;23098;48.054;10.636;2023-04-03T12:41:21;10.68;;;2.92;;
37203;SDS011;23098;48.054;10.636;2023-04-03T12:44:16;5.60;;;3.25;;
37203;SDS011;23098;48.054;10.636;2023-04-03T12:47:25;3.33;;;2.53;;
37203;SDS011;23098;48.054;10.636;2023-04-03T12:50:04;3.28;;;2.13;;
37203;SDS011;23098;48.054;10.636;2023-04-03T12:52:47;3.45;;;2.70;;
37203;SDS011;23098;48.054;10.636;2023-04-03T12:55:21;5.80;;;3.75;;
37203;SDS011;23098;48.054;10.636;2023-04-03T12:57:46;3.72;;;2.10;;
37203;SDS011;23098;48.054;10.636;2023-04-03T13:00:34;3.53;;;2.80;;
37203;SDS011;23098;48.054;10.636;2023-04-03T13:03:02;2.38;;;2.00;;
37203;SDS011;23098;48.054;10.636;2023-04-03T13:05:28;3.28;;;2.42;;
37203;SDS011;23098;48.054;10.636;2023-04-03T13:07:59;6.97;;;3.95;;
37203;SDS011;23098;48.054;10.636;2023-04-03T13:10:28;3.47;;;2.47;;
37203;SDS011;23098;48.054;10.636;2023-04-03T13:12:58;7.75;;;3.47;;
37203;SDS011;23098;48.054;10.636;2023-04-03T13:15:40;3.90;;;2.88;;
37203;SDS011;23098;48.054;10.636;2023-04-03T13:18:21;3.10;;;2.65;;
37203;SDS011;23098;48.054;10.636;2023-04-03T13:20:49;4.53;;;3.13;;
37203;SDS011;23098;48.054;10.636;2023-04-03T13:23:16;4.50;;;2.67;;
37203;SDS011;23098;48.054;10.636;2023-04-03T13:25:47;4.75;;;3.40;;
37203;SDS011;23098;48.054;10.636;2023-04-03T13:28:15;6.18;;;3.55;;
37203;SDS011;23098;48.054;10.636;2023-04-03T13:30:56;5.22;;;3.40;;
37203;SDS011;23098;48.054;10.636;2023-04-03T13:34:04;5.68;;;3.88;;
37203;SDS011;23098;48.054;10.636;2023-04-03T13:36:33;5.45;;;3.50;;
37203;SDS011;23098;48.054;10.636;2023-04-03T13:41:44;3.28;;;2.47;;
37203;SDS011;23098;48.054;10.636;2023-04-03T13:46:51;6.75;;;4.05;;
37203;SDS011;23098;48.054;10.636;2023-04-03T13:49:22;3.38;;;2.80;;
37203;SDS011;23098;48.054;10.636;2023-04-03T13:51:50;3.97;;;2.05;;
37203;SDS011;23098;48.054;10.636;2023-04-03T13:54:38;4.43;;;2.75;;
37203;SDS011;23098;48.054;10.636;2023-04-03T13:57:10;3.45;;;1.80;;
37203;SDS011;23098;48.054;10.636;2023-04-03T13:59:41;7.38;;;4.88;;
37203;SDS011;23098;48.054;10.636;2023-04-03T14:07:01;6.07;;;3.60;;
37203;SDS011;23098;48.054;10.636;2023-04-03T14:09:28;3.28;;;2.45;;
37203;SDS011;23098;48.054;10.636;2023-04-03T14:11:55;3.30;;;1.52;;
37203;SDS011;23098;48.054;10.636;2023-04-03T14:14:26;1.50;;;1.20;;
37203;SDS011;23098;48.054;10.636;2023-04-03T14:16:56;2.90;;;2.00;;
37203;SDS011;23098;48.054;10.636;2023-04-03T14:19:29;4.30;;;2.90;;
37203;SDS011;23098;48.054;10.636;2023-04-03T14:21:57;7.80;;;2.33;;
37203;SDS011;23098;48.054;10.636;2023-04-03T14:24:23;7.80;;;2.80;;
37203;SDS011;23098;48.054;10.636;2023-04-03T14:26:50;3.45;;;2.38;;
37203;SDS011;23098;48.054;10.636;2023-04-03T14:29:17;4.75;;;2.30;;
37203;SDS011;23098;48.054;10.636;2023-04-03T14:31:43;2.03;;;1.67;;
37203;SDS011;23098;48.054;10.636;2023-04-03T14:34:11;4.60;;;2.95;;
37203;SDS011;23098;48.054;10.636;2023-04-03T14:36:38;4.25;;;2.50;;
37203;SDS011;23098;48.054;10.636;2023-04-03T14:39:05;3.72;;;2.28;;
37203;SDS011;23098;48.054;10.636;2023-04-03T14:41:32;5.15;;;2.35;;
37203;SDS011;23098;48.054;10.636;2023-04-03T14:43:57;6.00;;;2.90;;
37203;SDS011;23098;48.054;10.636;2023-04-03T14:46:28;3.25;;;2.63;;
37203;SDS011;23098;48.054;10.636;2023-04-03T14:48:56;3.92;;;2.28;;
37203;SDS011;23098;48.054;10.636;2023-04-03T14:51:22;1.98;;;1.77;;
37203;SDS011;23098;48.054;10.636;2023-04-03T14:53:48;3.50;;;2.15;;
37203;SDS011;23098;48.054;10.636;2023-04-03T14:56:16;3.25;;;1.85;;
37203;SDS011;23098;48.054;10.636;2023-04-03T14:58:46;5.00;;;2.88;;
37203;SDS011;23098;48.054;10.636;2023-04-03T15:01:15;3.90;;;2.80;;
37203;SDS011;23098;48.054;10.636;2023-04-03T15:03:41;3.55;;;2.35;;
37203;SDS011;23098;48.054;10.636;2023-04-03T15:06:08;1.75;;;1.60;;
37203;SDS011;23098;48.054;10.636;2023-04-03T15:08:36;4.25;;;2.40;;
37203;SDS011;23098;48.054;10.636;2023-04-03T15:11:02;2.83;;;1.60;;
37203;SDS011;23098;48.054;10.636;2023-04-03T15:13:27;2.80;;;1.58;;
37203;SDS011;23098;48.054;10.636;2023-04-03T15:15:53;2.22;;;1.60;;
37203;SDS011;23098;48.054;10.636;2023-04-03T15:18:30;3.78;;;2.30;;
37203;SDS011;23098;48.054;10.636;2023-04-03T15:21:03;3.53;;;1.75;;
37203;SDS011;23098;48.054;10.636;2023-04-03T15:23:33;2.60;;;1.73;;
37203;SDS011;23098;48.054;10.636;2023-04-03T15:26:13;3.47;;;2.30;;
37203;SDS011;23098;48.054;10.636;2023-04-03T15:28:42;4.15;;;2.83;;
37203;SDS011;23098;48.054;10.636;2023-04-03T15:31:08;2.85;;;2.10;;
37203;SDS011;23098;48.054;10.636;2023-04-03T15:33:34;5.78;;;2.40;;
37203;SDS011;23098;48.054;10.636;2023-04-03T15:36:00;4.88;;;2.33;;
37203;SDS011;23098;48.054;10.636;2023-04-03T15:38:27;2.95;;;1.70;;
37203;SDS011;23098;48.054;10.636;2023-04-03T15:40:53;4.18;;;2.00;;
37203;SDS011;23098;48.054;10.636;2023-04-03T15:43:20;3.60;;;2.53;;
37203;SDS011;23098;48.054;10.636;2023-04-03T15:45:56;5.82;;;2.63;;
37203;SDS011;23098;48.054;10.636;2023-04-03T15:48:25;6.10;;;2.60;;
37203;SDS011;23098;48.054;10.636;2023-04-03T15:50:52;4.90;;;2.28;;
37203;SDS011;23098;48.054;10.636;2023-04-03T15:53:19;6.35;;;2.65;;
37203;SDS011;23098;48.054;10.636;2023-04-03T15:55:46;3.10;;;1.85;;
37203;SDS011;23098;48.054;10.636;2023-04-03T15:58:12;4.05;;;2.40;;
37203;SDS011;23098;48.054;10.636;2023-04-03T16:00:38;3.38;;;1.75;;
37203;SDS011;23098;48.054;10.636;2023-04-03T16:03:15;4.07;;;1.33;;
37203;SDS011;23098;48.054;10.636;2023-04-03T16:05:42;3.78;;;2.13;;
37203;SDS011;23098;48.054;10.636;2023-04-03T16:08:08;2.72;;;1.67;;
37203;SDS011;23098;48.054;10.636;2023-04-03T16:10:34;3.25;;;1.75;;
37203;SDS011;23098;48.054;10.636;2023-04-03T16:13:00;3.65;;;1.65;;
37203;SDS011;23098;48.054;10.636;2023-04-03T16:15:26;3.47;;;2.25;;
37203;SDS011;23098;48.054;10.636;2023-04-03T16:17:52;3.53;;;2.42;;